Terminal Aerodrome Forecast
Issued by NWS

Home | Current Version | Previous Version | Text Only | Print | Product List | Glossary On
Versions: 1 2 3 4 5 6 7 8 9 10 11 12 13 14 15 16 17 18 19 20 21
000
FTUS44 KSJT 061100
TAFSOA
TAF
KSOA 061124Z 0612/0712 16007KT P6SM SCT015
      TEMPO 0612/0614 BKN015
     FM061400 17010KT P6SM OVC015
     FM061500 17010G16KT P6SM BKN025
     FM061700 18012G18KT P6SM BKN050=

USA.gov is the U.S. government's official web portal to all federal, state and local government web resources and services.